createdAt,value
2019-04-29T00:02:06.953Z,7.80
2019-04-29T00:04:34.673Z,6.97
2019-04-29T00:07:02.382Z,9.60
2019-04-29T00:09:31.092Z,6.73
2019-04-29T00:11:58.774Z,5.33
2019-04-29T00:14:26.501Z,4.13
2019-04-29T00:17:00.838Z,10.13
2019-04-29T00:19:46.587Z,6.53
2019-04-29T00:22:14.288Z,7.00
2019-04-29T00:24:42.053Z,5.17
2019-04-29T00:27:09.855Z,9.77
2019-04-29T00:29:37.583Z,3.77
2019-04-29T00:32:05.335Z,6.57
2019-04-29T00:34:33.057Z,7.30
2019-04-29T00:37:13.961Z,3.97
2019-04-29T00:40:01.347Z,8.30
2019-04-29T00:42:57.256Z,6.40
2019-04-29T00:45:25.729Z,6.57
2019-04-29T00:47:53.536Z,4.40
2019-04-29T00:50:21.408Z,7.93
2019-04-29T00:52:49.221Z,9.40
2019-04-29T00:55:19.675Z,5.47
2019-04-29T00:57:47.430Z,7.73
2019-04-29T01:00:23.490Z,9.67
2019-04-29T01:02:51.225Z,4.07
2019-04-29T01:05:19.018Z,9.43
2019-04-29T01:07:46.817Z,7.50
2019-04-29T01:10:14.549Z,7.37
2019-04-29T01:12:42.371Z,7.93
2019-04-29T01:15:10.095Z,6.07
2019-04-29T01:17:37.837Z,8.03
2019-04-29T01:20:05.587Z,6.93
2019-04-29T01:22:33.314Z,6.17
2019-04-29T01:25:01.037Z,8.97
2019-04-29T01:27:34.497Z,9.33
2019-04-29T01:30:02.201Z,10.03
2019-04-29T01:32:29.962Z,5.23
2019-04-29T01:34:57.745Z,8.07
2019-04-29T01:37:39.258Z,10.57
2019-04-29T01:40:21.788Z,7.30
2019-04-29T01:42:49.589Z,13.13
2019-04-29T01:45:17.294Z,15.00
2019-04-29T01:47:45.061Z,10.77
2019-04-29T01:50:12.758Z,8.23
2019-04-29T01:52:40.507Z,8.47
2019-04-29T01:55:08.424Z,12.00
2019-04-29T01:57:36.180Z,9.33
2019-04-29T02:00:04.945Z,6.37
2019-04-29T02:02:32.664Z,3.80
2019-04-29T02:05:00.408Z,7.13
2019-04-29T02:07:28.133Z,6.73
2019-04-29T02:10:04.761Z,9.53
2019-04-29T02:12:32.489Z,5.37
2019-04-29T02:15:00.233Z,10.07
2019-04-29T02:17:27.938Z,8.63
2019-04-29T02:19:55.728Z,11.27
2019-04-29T02:22:33.505Z,9.47
2019-04-29T02:25:09.921Z,7.83
2019-04-29T02:27:37.639Z,8.07
2019-04-29T02:30:05.796Z,8.17
2019-04-29T02:32:33.516Z,8.00
2019-04-29T02:35:01.250Z,10.53
2019-04-29T02:37:33.085Z,9.33
2019-04-29T02:40:10.022Z,6.50
2019-04-29T02:42:47.090Z,4.80
2019-04-29T02:45:19.514Z,9.03
2019-04-29T02:47:47.211Z,7.03
2019-04-29T02:50:15.190Z,7.03
2019-04-29T02:52:42.877Z,6.90
2019-04-29T02:55:12.423Z,9.60
2019-04-29T02:57:45.190Z,6.70
2019-04-29T03:00:30.632Z,9.53
2019-04-29T03:03:05.282Z,10.90
2019-04-29T03:05:40.051Z,12.63
2019-04-29T03:08:07.819Z,7.30
2019-04-29T03:10:35.566Z,7.93
2019-04-29T03:13:03.268Z,5.90
2019-04-29T03:15:32.461Z,6.17
2019-04-29T03:18:00.251Z,9.17
2019-04-29T03:20:33.445Z,4.47
2019-04-29T03:23:12.250Z,6.67
2019-04-29T03:25:39.984Z,6.00
2019-04-29T03:28:07.742Z,7.93
2019-04-29T03:30:35.533Z,5.97
2019-04-29T03:33:03.447Z,4.90
2019-04-29T03:35:31.273Z,5.57
2019-04-29T03:37:59.720Z,6.90
2019-04-29T03:40:27.509Z,7.73
2019-04-29T03:42:55.244Z,4.53
2019-04-29T03:45:22.958Z,8.47
2019-04-29T03:47:50.715Z,9.90
2019-04-29T03:50:18.431Z,5.47
2019-04-29T03:52:46.179Z,6.63
2019-04-29T03:55:13.894Z,3.60
2019-04-29T03:57:41.632Z,7.60
2019-04-29T04:00:10.030Z,7.33
2019-04-29T04:02:44.451Z,8.93
2019-04-29T04:05:40.667Z,8.43
2019-04-29T04:08:13.053Z,7.03
2019-04-29T04:10:40.777Z,6.57
2019-04-29T04:13:08.551Z,4.10
2019-04-29T04:15:36.289Z,11.63
2019-04-29T04:18:25.544Z,6.63
2019-04-29T04:20:53.250Z,5.03
2019-04-29T04:23:21.010Z,7.80
2019-04-29T04:25:48.728Z,6.33
2019-04-29T04:28:16.468Z,4.80
2019-04-29T04:30:44.175Z,6.97
2019-04-29T04:33:11.903Z,4.30
2019-04-29T04:35:39.626Z,8.63
2019-04-29T04:38:07.493Z,6.13
2019-04-29T04:40:39.699Z,8.20
2019-04-29T04:43:07.436Z,9.40
2019-04-29T04:45:35.163Z,5.70
2019-04-29T04:48:02.980Z,6.53
2019-04-29T04:50:30.650Z,12.77
2019-04-29T04:52:58.389Z,6.37
2019-04-29T04:55:28.763Z,5.10
2019-04-29T04:57:56.500Z,9.50
2019-04-29T05:00:25.656Z,6.53
2019-04-29T05:02:53.357Z,5.73
2019-04-29T05:05:21.114Z,10.23
2019-04-29T05:07:48.821Z,9.07
2019-04-29T05:10:16.568Z,11.00
2019-04-29T05:12:44.276Z,4.77
2019-04-29T05:15:12.010Z,6.40
2019-04-29T05:17:39.755Z,3.93
2019-04-29T05:20:07.498Z,14.60
2019-04-29T05:22:35.214Z,10.57
2019-04-29T05:25:03.144Z,7.37
2019-04-29T05:27:30.859Z,6.70
2019-04-29T05:29:58.613Z,8.33
2019-04-29T05:32:26.342Z,4.57
2019-04-29T05:34:56.073Z,6.20
2019-04-29T05:37:35.194Z,5.90
2019-04-29T05:40:03.271Z,4.30
2019-04-29T05:42:30.989Z,6.63
2019-04-29T05:45:21.584Z,6.07
2019-04-29T05:47:58.959Z,5.43
2019-04-29T05:50:43.240Z,12.27
2019-04-29T05:53:16.374Z,9.10
2019-04-29T05:55:45.242Z,9.48
2019-04-29T05:58:13.021Z,6.55
2019-04-29T06:00:43.026Z,8.30
2019-04-29T06:03:10.710Z,4.95
2019-04-29T06:05:38.475Z,6.72
2019-04-29T06:08:06.318Z,7.47
2019-04-29T06:10:34.081Z,4.05
2019-04-29T06:13:01.825Z,5.92
2019-04-29T06:15:29.587Z,4.90
2019-04-29T06:17:57.357Z,6.53
2019-04-29T06:20:25.023Z,10.48
2019-04-29T06:22:53.800Z,8.23
2019-04-29T06:25:21.653Z,9.28
2019-04-29T06:27:49.533Z,8.58
2019-04-29T06:30:17.296Z,5.53
2019-04-29T06:32:45.074Z,4.58
2019-04-29T06:35:14.180Z,6.70
2019-04-29T06:37:42.134Z,7.42
2019-04-29T06:40:09.884Z,3.55
2019-04-29T06:42:37.652Z,3.08
2019-04-29T06:45:05.440Z,3.62
2019-04-29T06:47:33.192Z,4.45
2019-04-29T06:50:00.978Z,6.05
2019-04-29T06:52:28.710Z,4.97
2019-04-29T06:54:56.477Z,6.20
2019-04-29T06:57:24.249Z,6.20
2019-04-29T06:59:54.608Z,4.97
2019-04-29T07:02:21.569Z,4.47
2019-04-29T07:04:49.350Z,8.85
2019-04-29T07:07:17.126Z,4.10
2019-04-29T07:09:44.884Z,9.63
2019-04-29T07:12:13.919Z,4.30
2019-04-29T07:14:41.913Z,3.92
2019-04-29T07:17:10.096Z,5.55
2019-04-29T07:19:37.830Z,6.92
2019-04-29T07:22:05.585Z,9.93
2019-04-29T07:24:33.343Z,7.15
2019-04-29T07:27:02.702Z,7.00
2019-04-29T07:29:32.812Z,5.62
2019-04-29T07:32:00.273Z,4.58
2019-04-29T07:34:28.834Z,4.05
2019-04-29T07:36:59.410Z,3.33
2019-04-29T07:39:31.640Z,4.87
2019-04-29T07:41:56.789Z,3.33
2019-04-29T07:44:32.874Z,4.13
2019-04-29T07:47:00.340Z,6.27
2019-04-29T07:49:25.825Z,7.90
2019-04-29T07:51:53.591Z,11.70
2019-04-29T07:54:21.313Z,4.80
2019-04-29T07:56:49.040Z,6.27
2019-04-29T07:59:16.770Z,6.23
2019-04-29T08:01:44.519Z,5.03
2019-04-29T08:04:12.277Z,9.57
2019-04-29T08:06:43.041Z,6.83
2019-04-29T08:09:09.838Z,11.30
2019-04-29T08:11:37.649Z,5.93
2019-04-29T08:14:05.404Z,7.43
2019-04-29T08:16:33.142Z,8.20
2019-04-29T08:19:00.881Z,6.97
2019-04-29T08:21:28.603Z,6.03
2019-04-29T08:23:57.389Z,10.83
2019-04-29T08:26:25.122Z,4.40
2019-04-29T08:28:59.929Z,6.53
2019-04-29T08:31:22.405Z,4.07
2019-04-29T08:33:50.188Z,6.60
2019-04-29T08:36:17.930Z,6.17
2019-04-29T08:38:45.698Z,8.07
2019-04-29T08:41:13.476Z,6.63
2019-04-29T08:43:57.758Z,5.27
2019-04-29T08:46:26.977Z,5.40
2019-04-29T08:48:54.749Z,5.87
2019-04-29T08:51:22.503Z,7.03
2019-04-29T08:53:50.316Z,3.43
2019-04-29T08:56:18.239Z,5.80
2019-04-29T08:58:49.310Z,4.20
2019-04-29T09:01:15.491Z,4.10
2019-04-29T09:03:43.232Z,3.97
2019-04-29T09:06:11.086Z,2.60
2019-04-29T09:08:53.496Z,5.13
2019-04-29T09:11:12.310Z,1.87
2019-04-29T09:13:37.889Z,2.83
2019-04-29T09:16:05.613Z,4.10
2019-04-29T09:18:33.365Z,5.77
2019-04-29T09:21:01.098Z,3.60
2019-04-29T09:23:30.473Z,3.67
2019-04-29T09:26:20.213Z,2.83
2019-04-29T09:28:49.825Z,2.27
2019-04-29T09:31:17.960Z,6.07
2019-04-29T09:33:49.196Z,3.03
2019-04-29T09:36:15.258Z,4.13
2019-04-29T09:38:42.957Z,2.63
2019-04-29T09:41:24.441Z,5.93
2019-04-29T09:44:26.370Z,3.43
2019-04-29T09:46:54.119Z,1.50
2019-04-29T09:49:21.854Z,4.35
2019-04-29T09:51:49.594Z,4.30
2019-04-29T09:54:17.394Z,2.37
2019-04-29T09:56:45.170Z,5.63
2019-04-29T09:59:25.452Z,2.30
2019-04-29T10:02:09.497Z,4.30
2019-04-29T10:04:56.378Z,3.10
2019-04-29T10:07:15.165Z,2.23
2019-04-29T10:09:56.044Z,3.70
2019-04-29T10:12:12.509Z,3.63
2019-04-29T10:14:40.221Z,2.10
2019-04-29T10:17:30.761Z,2.97
2019-04-29T10:20:19.209Z,1.40
2019-04-29T10:22:50.215Z,4.07
2019-04-29T10:25:16.491Z,2.67
2019-04-29T10:27:44.258Z,3.40
2019-04-29T10:30:12.075Z,2.43
2019-04-29T10:32:42.380Z,1.97
2019-04-29T10:35:10.759Z,2.87
2019-04-29T10:37:38.637Z,2.90
2019-04-29T10:40:19.033Z,5.00
2019-04-29T10:42:54.362Z,3.27
2019-04-29T10:45:42.937Z,2.10
2019-04-29T10:48:23.897Z,3.63
2019-04-29T10:50:52.459Z,2.17
2019-04-29T10:53:21.418Z,2.40
2019-04-29T10:55:49.161Z,3.43
2019-04-29T10:58:21.999Z,3.00
2019-04-29T11:01:44.917Z,3.03
2019-04-29T11:04:12.702Z,2.13
2019-04-29T11:06:40.364Z,4.17
2019-04-29T11:09:33.261Z,2.67
2019-04-29T11:12:01.169Z,1.80
2019-04-29T11:14:28.902Z,2.00
2019-04-29T11:16:56.649Z,3.80
2019-04-29T11:19:24.402Z,4.67
2019-04-29T11:21:52.118Z,2.03
2019-04-29T11:24:32.434Z,2.20
2019-04-29T11:27:13.102Z,2.33
2019-04-29T11:29:40.858Z,2.33
2019-04-29T11:32:15.421Z,1.97
2019-04-29T11:35:11.421Z,4.47
2019-04-29T11:37:39.235Z,1.27
2019-04-29T11:40:07.194Z,1.70
2019-04-29T11:42:36.480Z,2.10
2019-04-29T11:45:08.099Z,5.70
2019-04-29T11:47:36.053Z,2.83
2019-04-29T11:50:13.627Z,1.97
2019-04-29T11:52:41.520Z,1.90
2019-04-29T11:55:09.662Z,2.10
2019-04-29T11:57:49.641Z,4.20
2019-04-29T12:00:37.701Z,1.93
2019-04-29T12:03:08.654Z,3.50
2019-04-29T12:05:44.809Z,2.63
2019-04-29T12:08:16.843Z,1.37
2019-04-29T12:10:48.468Z,3.23
2019-04-29T12:13:18.964Z,1.63
2019-04-29T12:16:01.359Z,1.57
2019-04-29T12:18:33.985Z,1.57
2019-04-29T12:21:16.701Z,2.40
2019-04-29T12:23:47.771Z,3.60
2019-04-29T12:26:14.009Z,3.10
2019-04-29T12:28:42.729Z,2.43
2019-04-29T12:31:23.146Z,1.93
2019-04-29T12:33:56.973Z,3.83
2019-04-29T12:36:24.771Z,2.57
2019-04-29T12:39:42.999Z,2.23
2019-04-29T12:42:24.790Z,3.50
2019-04-29T12:44:58.706Z,3.70
2019-04-29T12:47:29.893Z,1.17
2019-04-29T12:49:57.645Z,4.83
2019-04-29T12:52:25.761Z,1.53
2019-04-29T12:54:53.558Z,1.60
2019-04-29T12:57:23.684Z,4.27
2019-04-29T12:59:54.170Z,6.40
2019-04-29T13:02:55.524Z,1.63
2019-04-29T13:05:57.144Z,3.97
2019-04-29T13:08:18.165Z,1.43
2019-04-29T13:10:50.991Z,1.70
2019-04-29T13:13:20.592Z,2.93
2019-04-29T13:16:12.886Z,4.80
2019-04-29T13:18:48.879Z,1.57
2019-04-29T13:21:18.265Z,4.37
2019-04-29T13:23:59.049Z,1.70
2019-04-29T13:26:27.400Z,2.20
2019-04-29T13:28:59.130Z,1.73
2019-04-29T13:31:14.698Z,4.00
2019-04-29T13:33:46.071Z,3.07
2019-04-29T13:36:12.278Z,2.30
2019-04-29T13:38:40.162Z,1.20
2019-04-29T13:41:13.565Z,1.90
2019-04-29T13:43:37.517Z,3.73
2019-04-29T13:46:24.689Z,1.43
2019-04-29T13:49:17.766Z,4.10
2019-04-29T13:51:46.802Z,3.73
2019-04-29T13:54:14.526Z,2.30
2019-04-29T13:56:55.094Z,2.60
2019-04-29T13:59:14.757Z,1.73
2019-04-29T14:02:07.427Z,2.67
2019-04-29T14:04:40.933Z,1.30
2019-04-29T14:07:08.683Z,2.67
2019-04-29T14:09:39.144Z,2.57
2019-04-29T14:12:46.336Z,2.37
2019-04-29T14:14:35.490Z,3.20
2019-04-29T14:17:24.304Z,3.27
2019-04-29T14:19:40.979Z,2.37
2019-04-29T14:22:02.389Z,3.67
2019-04-29T14:24:30.113Z,2.43
2019-04-29T14:26:57.839Z,4.47
2019-04-29T14:29:28.171Z,7.23
2019-04-29T14:31:59.348Z,2.80
2019-04-29T14:34:48.698Z,4.33
2019-04-29T14:37:24.640Z,2.20
2019-04-29T14:39:46.974Z,3.20
2019-04-29T14:42:40.065Z,1.73
2019-04-29T14:45:32.914Z,3.07
2019-04-29T14:48:22.650Z,4.40
2019-04-29T14:50:54.219Z,2.07
2019-04-29T14:53:24.394Z,4.30
2019-04-29T14:55:49.959Z,3.67
2019-04-29T14:58:18.051Z,3.13
2019-04-29T15:01:05.806Z,5.10
2019-04-29T15:03:51.137Z,1.50
2019-04-29T15:06:18.880Z,1.87
2019-04-29T15:08:48.873Z,0.83
2019-04-29T15:11:30.993Z,3.27
2019-04-29T15:13:50.714Z,1.87
2019-04-29T15:16:27.030Z,3.17
2019-04-29T15:19:23.270Z,2.13
2019-04-29T15:21:55.542Z,1.20
2019-04-29T15:24:27.469Z,1.57
2019-04-29T15:26:52.878Z,2.77
2019-04-29T15:29:20.609Z,2.63
2019-04-29T15:31:48.973Z,1.70
2019-04-29T15:34:16.762Z,2.43
2019-04-29T15:36:44.531Z,1.53
2019-04-29T15:39:12.564Z,2.27
2019-04-29T15:41:40.997Z,2.47
2019-04-29T15:44:18.746Z,1.93
2019-04-29T15:46:46.237Z,2.93
2019-04-29T15:49:09.582Z,2.17
2019-04-29T15:51:37.385Z,2.43
2019-04-29T15:54:16.153Z,1.87
2019-04-29T15:56:43.974Z,5.00
2019-04-29T15:59:11.755Z,2.77
2019-04-29T16:01:41.435Z,2.50
2019-04-29T16:05:18.932Z,1.97
2019-04-29T16:07:51.626Z,1.87
2019-04-29T16:10:37.122Z,1.63
2019-04-29T16:13:07.846Z,3.83
2019-04-29T16:15:44.612Z,2.03
2019-04-29T16:18:14.886Z,3.60
2019-04-29T16:20:43.343Z,1.93
2019-04-29T16:23:11.179Z,2.73
2019-04-29T16:25:40.738Z,3.27
2019-04-29T16:28:09.513Z,6.03
2019-04-29T16:30:37.458Z,1.63
2019-04-29T16:35:35.090Z,1.67
2019-04-29T16:38:05.898Z,2.87
2019-04-29T16:40:39.455Z,1.73
2019-04-29T16:43:27.820Z,4.53
2019-04-29T16:46:07.988Z,3.07
2019-04-29T16:48:35.749Z,1.13
2019-04-29T16:51:06.711Z,2.33
2019-04-29T16:53:33.189Z,2.33
2019-04-29T16:56:00.973Z,1.47
2019-04-29T17:02:05.519Z,0.93
2019-04-29T17:05:39.799Z,1.60
2019-04-29T17:08:09.504Z,2.40
2019-04-29T17:10:47.353Z,2.23
2019-04-29T17:13:23.479Z,2.60
2019-04-29T17:15:52.241Z,4.23
2019-04-29T17:18:14.625Z,5.63
2019-04-29T17:20:42.578Z,2.63
2019-04-29T17:23:10.354Z,3.33
2019-04-29T17:25:38.141Z,4.33
2019-04-29T17:28:31.436Z,3.20
2019-04-29T17:31:30.516Z,1.57
2019-04-29T17:33:51.474Z,2.33
2019-04-29T17:35:17.187Z,1.93
2019-04-29T17:36:23.663Z,2.70
2019-04-29T17:38:49.128Z,3.10
2019-04-29T17:41:16.957Z,2.57
2019-04-29T17:44:07.046Z,2.57
2019-04-29T17:46:50.078Z,1.90
2019-04-29T17:49:30.555Z,3.77
2019-04-29T17:52:02.819Z,2.00
2019-04-29T17:54:31.829Z,1.50
2019-04-29T17:57:26.373Z,2.43
2019-04-29T18:00:08.648Z,1.80
2019-04-29T18:03:01.477Z,2.53
2019-04-29T18:05:54.970Z,2.10
2019-04-29T18:08:40.822Z,1.50
2019-04-29T18:11:08.910Z,4.53
2019-04-29T18:13:36.696Z,1.83
2019-04-29T18:16:17.349Z,2.73
2019-04-29T18:18:53.224Z,3.43
2019-04-29T18:21:47.423Z,4.07
2019-04-29T18:24:35.951Z,1.30
2019-04-29T18:27:07.942Z,2.47
2019-04-29T18:29:41.364Z,2.63
2019-04-29T18:32:07.950Z,3.67
2019-04-29T18:34:37.406Z,2.27
2019-04-29T18:37:06.474Z,2.47
2019-04-29T18:39:34.724Z,3.33
2019-04-29T18:45:11.718Z,4.57
2019-04-29T18:47:39.458Z,2.30
2019-04-29T18:50:07.528Z,2.37
2019-04-29T18:52:35.278Z,2.20
2019-04-29T18:55:03.014Z,4.60
2019-04-29T18:57:31.063Z,1.73
2019-04-29T18:59:58.848Z,2.80
2019-04-29T19:02:27.473Z,3.13
2019-04-29T19:05:01.151Z,2.73
2019-04-29T19:07:31.872Z,3.27
2019-04-29T19:09:59.618Z,3.73
2019-04-29T19:12:27.373Z,2.90
2019-04-29T19:16:39.281Z,3.27
2019-04-29T19:17:36.739Z,3.10
2019-04-29T19:20:03.733Z,4.40
2019-04-29T19:22:31.437Z,1.90
2019-04-29T19:24:59.173Z,4.80
2019-04-29T19:27:30.490Z,3.80
2019-04-29T19:29:56.973Z,3.07
2019-04-29T19:32:24.789Z,1.90
2019-04-29T19:34:56.872Z,2.47
2019-04-29T19:37:22.297Z,3.43
2019-04-29T19:39:52.491Z,1.70
2019-04-29T19:42:29.138Z,2.67
2019-04-29T19:44:49.345Z,3.43
2019-04-29T19:47:17.110Z,5.47
2019-04-29T19:49:45.866Z,5.53
2019-04-29T19:52:19.029Z,8.60
2019-04-29T19:54:43.392Z,4.27
2019-04-29T19:57:55.816Z,4.97
2019-04-29T20:00:28.257Z,4.77
2019-04-29T20:02:51.674Z,5.90
2019-04-29T20:05:41.161Z,4.60
2019-04-29T20:08:09.978Z,3.67
2019-04-29T20:10:46.697Z,4.07
2019-04-29T20:13:08.824Z,2.97
2019-04-29T20:15:45.554Z,2.53
2019-04-29T20:18:41.509Z,5.13
2019-04-29T20:21:20.774Z,5.50
2019-04-29T20:23:42.878Z,7.30
2019-04-29T20:26:15.569Z,3.70
2019-04-29T20:28:40.416Z,4.67
2019-04-29T20:31:16.416Z,3.87
2019-04-29T20:33:42.216Z,3.83
2019-04-29T20:36:09.982Z,1.97
2019-04-29T20:38:39.077Z,8.77
2019-04-29T20:41:08.222Z,2.40
2019-04-29T20:43:38.328Z,3.50
2019-04-29T20:46:06.271Z,10.93
2019-04-29T20:48:36.785Z,6.47
2019-04-29T20:51:13.203Z,6.93
2019-04-29T20:53:40.638Z,7.63
2019-04-29T20:56:11.872Z,8.63
2019-04-29T20:58:38.474Z,7.00
2019-04-29T21:01:11.268Z,5.73
2019-04-29T21:03:40.962Z,4.37
2019-04-29T21:06:08.085Z,7.67
2019-04-29T21:08:35.865Z,8.30
2019-04-29T21:11:08.566Z,6.17
2019-04-29T21:13:56.325Z,4.03
2019-04-29T21:16:29.099Z,6.53
2019-04-29T21:18:56.787Z,4.27
2019-04-29T21:21:25.759Z,3.87
2019-04-29T21:23:55.272Z,3.03
2019-04-29T21:26:44.566Z,3.37
2019-04-29T21:29:14.791Z,4.30
2019-04-29T21:31:40.257Z,3.77
2019-04-29T21:34:08.278Z,8.00
2019-04-29T21:36:55.923Z,7.13
2019-04-29T21:39:42.703Z,7.77
2019-04-29T21:42:21.041Z,5.93
2019-04-29T21:44:48.857Z,4.97
2019-04-29T21:47:16.921Z,3.77
2019-04-29T21:49:45.706Z,4.37
2019-04-29T21:52:15.389Z,5.60
2019-04-29T21:54:44.612Z,6.20
2019-04-29T21:57:16.450Z,5.37
2019-04-29T21:59:46.169Z,3.73
2019-04-29T22:02:12.974Z,5.13
2019-04-29T22:04:42.722Z,8.33
2019-04-29T22:07:11.466Z,3.20
2019-04-29T22:09:40.495Z,5.07
2019-04-29T22:12:08.809Z,3.77
2019-04-29T22:14:37.029Z,9.40
2019-04-29T22:17:05.283Z,8.10
2019-04-29T22:19:34.940Z,7.17
2019-04-29T22:22:02.651Z,6.97
2019-04-29T22:24:30.392Z,4.50
2019-04-29T22:27:04.202Z,4.07
2019-04-29T22:29:27.700Z,5.97
2019-04-29T22:31:57.221Z,7.17
2019-04-29T22:34:25.326Z,3.27
2019-04-29T22:36:58.287Z,5.47
2019-04-29T22:39:26.707Z,4.30
2019-04-29T22:42:17.518Z,7.47
2019-04-29T22:44:45.752Z,3.80
2019-04-29T22:47:17.263Z,4.03
2019-04-29T22:49:43.221Z,5.07
2019-04-29T22:52:10.939Z,5.33
2019-04-29T22:54:38.653Z,3.33
2019-04-29T22:57:06.406Z,3.80
2019-04-29T22:59:35.346Z,2.27
2019-04-29T23:02:03.153Z,4.40
2019-04-29T23:04:30.902Z,4.20
2019-04-29T23:06:58.633Z,5.60
2019-04-29T23:09:26.479Z,5.40
2019-04-29T23:11:55.683Z,5.40
2019-04-29T23:14:25.174Z,3.90
2019-04-29T23:16:53.073Z,3.30
2019-04-29T23:19:20.793Z,3.37
2019-04-29T23:22:10.707Z,4.57
2019-04-29T23:24:55.566Z,3.47
2019-04-29T23:27:23.425Z,3.70
2019-04-29T23:29:51.147Z,4.03
2019-04-29T23:32:18.909Z,3.90
2019-04-29T23:34:46.653Z,3.67
2019-04-29T23:37:14.388Z,2.37
2019-04-29T23:39:42.125Z,2.70
2019-04-29T23:42:12.238Z,2.73
2019-04-29T23:44:42.434Z,2.97
2019-04-29T23:47:10.277Z,6.27
2019-04-29T23:49:42.948Z,3.97
2019-04-29T23:52:11.580Z,6.43
2019-04-29T23:54:44.334Z,4.73
2019-04-29T23:57:41.889Z,4.33
